Time,TemperatureF,DewpointF,PressureIn,WindDirection,WindDirectionDegrees,WindSpeedMPH,WindSpeedGustMPH,Humidity,HourlyPrecipIn,Conditions,Clouds,dailyrainin,SoftwareType,DateUTC
2013-06-29 00:04:00,77.2,70.9,29.36,SSE,157,0.0,0.0,81,0.00,,,0.00,WUHU21623XXSP,2013-06-29 04:04:00,
2013-06-29 00:09:00,77.2,70.9,29.36,SSE,157,0.0,0.0,81,0.00,,,0.00,WUHU21623XXSP,2013-06-29 04:09:00,
2013-06-29 00:14:00,77.2,70.9,29.36,SSE,157,0.0,0.0,81,0.00,,,0.00,WUHU21623XXSP,2013-06-29 04:14:00,
2013-06-29 00:19:00,77.2,70.9,29.36,SSE,157,0.0,0.0,81,0.00,,,0.00,WUHU21623XXSP,2013-06-29 04:19:00,
2013-06-29 00:24:00,77.2,70.9,29.36,SSE,157,0.0,0.0,81,0.00,,,0.00,WUHU21623XXSP,2013-06-29 04:24:00,
2013-06-29 00:29:00,77.4,71.1,29.35,SSE,157,0.0,0.0,81,0.00,,,0.00,WUHU21623XXSP,2013-06-29 04:29:00,
2013-06-29 00:34:00,77.2,70.9,29.35,SSE,157,0.0,0.0,81,0.00,,,0.00,WUHU21623XXSP,2013-06-29 04:34:00,
2013-06-29 00:39:00,77.4,71.1,29.35,SSE,157,0.0,0.0,81,0.00,,,0.00,WUHU21623XXSP,2013-06-29 04:39:00,
2013-06-29 00:44:00,77.4,71.1,29.35,SSE,157,0.0,0.0,81,0.00,,,0.00,WUHU21623XXSP,2013-06-29 04:44:00,
2013-06-29 00:49:00,77.4,71.1,29.35,SSE,157,0.0,0.0,81,0.00,,,0.00,WUHU21623XXSP,2013-06-29 04:49:00,
2013-06-29 00:54:00,77.5,71.2,29.35,SSE,157,0.0,0.0,81,0.00,,,0.00,WUHU21623XXSP,2013-06-29 04:54:00,
2013-06-29 00:59:00,77.4,71.1,29.35,SSE,157,0.0,0.0,81,0.00,,,0.00,WUHU21623XXSP,2013-06-29 04:59:00,
2013-06-29 01:04:00,77.4,71.1,29.35,SSE,157,0.0,0.0,81,0.00,,,0.00,WUHU21623XXSP,2013-06-29 05:04:00,
2013-06-29 01:09:00,77.4,71.4,29.35,SSE,157,0.0,0.0,82,0.00,,,0.00,WUHU21623XXSP,2013-06-29 05:09:00,
2013-06-29 01:14:00,77.4,71.4,29.34,SSE,157,0.0,0.0,82,0.00,,,0.00,WUHU21623XXSP,2013-06-29 05:14:00,
2013-06-29 01:19:00,77.4,71.4,29.34,SSE,157,0.0,0.0,82,0.00,,,0.00,WUHU21623XXSP,2013-06-29 05:19:00,
2013-06-29 01:24:00,77.4,71.4,29.34,SSE,157,0.0,0.0,82,0.00,,,0.00,WUHU21623XXSP,2013-06-29 05:24:00,
2013-06-29 01:29:00,77.4,71.4,29.33,SSE,157,0.0,0.0,82,0.00,,,0.00,WUHU21623XXSP,2013-06-29 05:29:00,
2013-06-29 01:34:00,77.5,71.6,29.33,SSE,157,0.0,0.0,82,0.00,,,0.00,WUHU21623XXSP,2013-06-29 05:34:00,
2013-06-29 01:39:00,77.4,71.4,29.33,SSE,157,0.0,0.0,82,0.00,,,0.00,WUHU21623XXSP,2013-06-29 05:39:00,
2013-06-29 01:44:00,77.4,71.4,29.33,SSE,157,0.0,0.0,82,0.00,,,0.00,WUHU21623XXSP,2013-06-29 05:44:00,
2013-06-29 01:49:00,77.4,71.4,29.33,SSE,157,0.0,0.0,82,0.00,,,0.00,WUHU21623XXSP,2013-06-29 05:49:00,
2013-06-29 01:54:00,77.4,71.4,29.33,SSE,157,0.0,0.0,82,0.00,,,0.00,WUHU21623XXSP,2013-06-29 05:54:00,
2013-06-29 01:59:00,77.4,71.8,29.33,SSE,157,0.0,0.0,83,0.00,,,0.00,WUHU21623XXSP,2013-06-29 05:59:00,
2013-06-29 02:04:00,77.2,71.6,29.33,SSE,157,0.0,0.0,83,0.00,,,0.00,WUHU21623XXSP,2013-06-29 06:04:00,
2013-06-29 02:09:00,77.2,71.6,29.34,SSE,157,0.0,0.0,83,0.00,,,0.00,WUHU21623XXSP,2013-06-29 06:09:00,
2013-06-29 02:14:00,77.2,71.6,29.33,SSE,157,0.0,0.0,83,0.00,,,0.00,WUHU21623XXSP,2013-06-29 06:14:00,
2013-06-29 02:19:00,77.2,71.6,29.33,SSE,157,0.0,0.0,83,0.00,,,0.00,WUHU21623XXSP,2013-06-29 06:19:00,
2013-06-29 02:24:00,77.2,71.6,29.33,SSE,157,0.0,0.0,83,0.00,,,0.00,WUHU21623XXSP,2013-06-29 06:24:00,
2013-06-29 02:29:00,77.2,71.6,29.33,SSE,157,0.0,0.0,83,0.00,,,0.00,WUHU21623XXSP,2013-06-29 06:29:00,
2013-06-29 02:34:00,77.2,71.6,29.32,SSE,157,0.0,0.0,83,0.00,,,0.00,WUHU21623XXSP,2013-06-29 06:34:00,
2013-06-29 02:39:00,77.2,71.6,29.32,SSE,157,0.0,0.0,83,0.00,,,0.00,WUHU21623XXSP,2013-06-29 06:39:00,
2013-06-29 02:44:00,77.2,71.6,29.32,SSE,157,0.0,0.0,83,0.00,,,0.00,WUHU21623XXSP,2013-06-29 06:44:00,
2013-06-29 02:49:00,77.2,71.6,29.32,SSE,157,0.0,0.0,83,0.00,,,0.00,WUHU21623XXSP,2013-06-29 06:49:00,
2013-06-29 02:54:00,77.2,71.6,29.32,SSE,157,0.0,0.0,83,0.00,,,0.00,WUHU21623XXSP,2013-06-29 06:54:00,
2013-06-29 02:59:00,77.4,71.8,29.32,SSE,157,0.0,0.0,83,0.00,,,0.00,WUHU21623XXSP,2013-06-29 06:59:00,
2013-06-29 03:04:00,77.4,71.8,29.32,SSE,157,0.0,0.0,83,0.00,,,0.00,WUHU21623XXSP,2013-06-29 07:04:00,
2013-06-29 03:09:00,77.4,71.8,29.31,SSE,157,0.0,0.0,83,0.00,,,0.00,WUHU21623XXSP,2013-06-29 07:09:00,
2013-06-29 03:14:00,77.2,71.6,29.31,SSE,157,0.0,0.0,83,0.00,,,0.00,WUHU21623XXSP,2013-06-29 07:14:00,
2013-06-29 03:19:00,77.2,72.0,29.31,SSE,157,0.0,0.0,84,0.00,,,0.00,WUHU21623XXSP,2013-06-29 07:19:00,
2013-06-29 03:24:00,77.2,72.0,29.31,SSE,157,0.0,0.0,84,0.00,,,0.00,WUHU21623XXSP,2013-06-29 07:24:00,
2013-06-29 03:29:00,77.2,72.0,29.32,SSE,157,0.0,0.0,84,0.00,,,0.00,WUHU21623XXSP,2013-06-29 07:29:00,
2013-06-29 03:34:00,77.2,72.0,29.32,SSE,157,0.0,0.0,84,0.00,,,0.00,WUHU21623XXSP,2013-06-29 07:34:00,
2013-06-29 03:39:00,77.2,72.0,29.32,SSE,157,0.0,0.0,84,0.00,,,0.00,WUHU21623XXSP,2013-06-29 07:39:00,
2013-06-29 03:44:00,77.2,72.0,29.31,SSE,157,0.0,0.0,84,0.00,,,0.00,WUHU21623XXSP,2013-06-29 07:44:00,
2013-06-29 03:49:00,77.2,72.0,29.31,SSE,157,0.0,0.0,84,0.00,,,0.00,WUHU21623XXSP,2013-06-29 07:49:00,
2013-06-29 03:54:00,77.2,72.0,29.31,SSE,157,0.0,0.0,84,0.00,,,0.00,WUHU21623XXSP,2013-06-29 07:54:00,
2013-06-29 03:59:00,77.2,72.0,29.31,SSE,157,0.0,0.0,84,0.00,,,0.00,WUHU21623XXSP,2013-06-29 07:59:00,
2013-06-29 04:04:00,77.2,72.0,29.31,South,180,0.0,0.0,84,0.00,,,0.00,WUHU21623XXSP,2013-06-29 08:04:00,
2013-06-29 04:09:00,77.2,72.0,29.31,SW,225,0.0,0.0,84,0.00,,,0.00,WUHU21623XXSP,2013-06-29 08:09:00,
2013-06-29 04:14:00,77.2,72.0,29.31,SW,225,0.0,0.0,84,0.00,,,0.00,WUHU21623XXSP,2013-06-29 08:14:00,
2013-06-29 04:19:00,77.2,72.0,29.31,SW,225,0.0,0.0,84,0.00,,,0.00,WUHU21623XXSP,2013-06-29 08:19:00,
2013-06-29 04:24:00,77.2,72.0,29.31,SW,225,0.0,0.0,84,0.00,,,0.00,WUHU21623XXSP,2013-06-29 08:24:00,
2013-06-29 04:29:00,77.0,71.8,29.31,SW,225,0.0,0.0,84,0.00,,,0.00,WUHU21623XXSP,2013-06-29 08:29:00,
2013-06-29 04:34:00,77.0,71.8,29.31,SW,225,0.0,0.0,84,0.00,,,0.00,WUHU21623XXSP,2013-06-29 08:34:00,
2013-06-29 04:39:00,77.0,71.8,29.32,SW,225,0.0,0.0,84,0.00,,,0.00,WUHU21623XXSP,2013-06-29 08:39:00,
2013-06-29 04:44:00,77.0,71.8,29.32,SW,225,0.0,0.0,84,0.00,,,0.00,WUHU21623XXSP,2013-06-29 08:44:00,
2013-06-29 04:49:00,76.8,71.8,29.33,SW,225,0.0,0.0,85,0.00,,,0.00,WUHU21623XXSP,2013-06-29 08:49:00,
2013-06-29 04:54:00,76.8,72.0,29.33,WSW,247,0.0,0.0,85,0.00,,,0.00,WUHU21623XXSP,2013-06-29 08:54:00,
2013-06-29 04:59:00,76.8,72.0,29.33,WSW,247,0.0,0.0,85,0.00,,,0.00,WUHU21623XXSP,2013-06-29 08:59:00,
2013-06-29 05:04:00,76.8,72.0,29.33,WSW,247,0.0,0.0,85,0.00,,,0.00,WUHU21623XXSP,2013-06-29 09:04:00,
2013-06-29 05:09:00,76.8,72.0,29.34,SW,225,0.0,0.0,85,0.00,,,0.00,WUHU21623XXSP,2013-06-29 09:09:00,
2013-06-29 05:14:00,76.8,72.0,29.34,SSE,157,0.0,0.0,85,0.00,,,0.00,WUHU21623XXSP,2013-06-29 09:14:00,
2013-06-29 05:19:00,76.8,72.0,29.34,SSE,157,0.0,0.0,85,0.00,,,0.00,WUHU21623XXSP,2013-06-29 09:19:00,
2013-06-29 05:24:00,76.8,72.0,29.33,SSE,157,0.0,0.0,85,0.00,,,0.00,WUHU21623XXSP,2013-06-29 09:24:00,
2013-06-29 05:29:00,76.6,72.0,29.33,SSE,157,0.0,0.0,85,0.00,,,0.00,WUHU21623XXSP,2013-06-29 09:29:00,
2013-06-29 05:34:00,76.5,71.6,29.33,SSE,157,0.0,0.0,85,0.00,,,0.00,WUHU21623XXSP,2013-06-29 09:34:00,
2013-06-29 05:39:00,76.3,71.5,29.34,SSE,157,0.0,0.0,85,0.00,,,0.00,WUHU21623XXSP,2013-06-29 09:39:00,
2013-06-29 05:44:00,76.3,71.5,29.34,SE,135,0.0,0.0,85,0.00,,,0.00,WUHU21623XXSP,2013-06-29 09:44:00,
2013-06-29 05:49:00,76.1,71.3,29.34,South,180,0.0,0.0,85,0.00,,,0.00,WUHU21623XXSP,2013-06-29 09:49:00,
2013-06-29 05:54:00,76.1,71.3,29.35,SSE,157,0.0,0.0,85,0.00,,,0.00,WUHU21623XXSP,2013-06-29 09:54:00,
2013-06-29 05:59:00,75.9,71.1,29.35,SE,135,0.0,0.0,85,0.00,,,0.00,WUHU21623XXSP,2013-06-29 09:59:00,
2013-06-29 06:04:00,75.9,71.1,29.34,SSE,157,0.0,0.0,85,0.00,,,0.00,WUHU21623XXSP,2013-06-29 10:04:00,
2013-06-29 06:09:00,75.9,71.1,29.34,SSE,157,0.0,0.0,85,0.00,,,0.00,WUHU21623XXSP,2013-06-29 10:09:00,
2013-06-29 06:14:00,75.7,70.9,29.33,SE,135,0.0,0.0,85,0.00,,,0.00,WUHU21623XXSP,2013-06-29 10:14:00,
2013-06-29 06:19:00,75.7,70.6,29.33,SE,135,0.0,0.0,84,0.00,,,0.00,WUHU21623XXSP,2013-06-29 10:19:00,
2013-06-29 06:24:00,75.6,70.4,29.33,SE,135,0.0,0.0,84,0.00,,,0.00,WUHU21623XXSP,2013-06-29 10:24:00,
2013-06-29 06:29:00,75.4,70.3,29.33,SE,135,0.0,0.0,84,0.00,,,0.00,WUHU21623XXSP,2013-06-29 10:29:00,
2013-06-29 06:34:00,75.4,70.3,29.33,ESE,112,0.0,0.0,84,0.00,,,0.00,WUHU21623XXSP,2013-06-29 10:34:00,
2013-06-29 06:39:00,75.4,70.3,29.33,ESE,112,0.0,0.0,84,0.00,,,0.00,WUHU21623XXSP,2013-06-29 10:39:00,
2013-06-29 06:44:00,75.2,70.1,29.33,ESE,112,0.0,0.0,84,0.00,,,0.00,WUHU21623XXSP,2013-06-29 10:44:00,
2013-06-29 06:49:00,75.2,70.1,29.33,ESE,112,0.0,0.0,84,0.00,,,0.00,WUHU21623XXSP,2013-06-29 10:49:00,
2013-06-29 06:54:00,75.4,70.3,29.33,ESE,112,0.0,0.0,84,0.00,,,0.00,WUHU21623XXSP,2013-06-29 10:54:00,
2013-06-29 06:59:00,75.4,70.3,29.33,ESE,112,0.0,0.0,84,0.00,,,0.00,WUHU21623XXSP,2013-06-29 10:59:00,
2013-06-29 07:04:00,75.4,70.3,29.33,ESE,112,0.0,0.0,84,0.00,,,0.00,WUHU21623XXSP,2013-06-29 11:04:00,
2013-06-29 07:09:00,75.4,70.3,29.33,ESE,112,0.0,0.0,84,0.00,,,0.00,WUHU21623XXSP,2013-06-29 11:09:00,
2013-06-29 07:14:00,75.4,70.3,29.33,ESE,112,0.0,0.0,84,0.00,,,0.00,WUHU21623XXSP,2013-06-29 11:14:00,
2013-06-29 07:19:00,75.6,70.4,29.33,ESE,112,0.0,0.0,84,0.00,,,0.00,WUHU21623XXSP,2013-06-29 11:19:00,
2013-06-29 07:24:00,75.7,70.6,29.34,ESE,112,0.0,0.0,84,0.00,,,0.00,WUHU21623XXSP,2013-06-29 11:24:00,
2013-06-29 07:29:00,75.7,70.6,29.33,ESE,112,0.0,0.0,84,0.00,,,0.00,WUHU21623XXSP,2013-06-29 11:29:00,
2013-06-29 07:34:00,75.9,70.8,29.33,ESE,112,0.0,0.0,84,0.00,,,0.00,WUHU21623XXSP,2013-06-29 11:34:00,
2013-06-29 07:39:00,76.6,71.4,29.33,ESE,112,0.0,0.0,84,0.00,,,0.00,WUHU21623XXSP,2013-06-29 11:39:00,
2013-06-29 07:44:00,76.8,72.0,29.33,ESE,112,0.0,0.0,85,0.00,,,0.00,WUHU21623XXSP,2013-06-29 11:44:00,
2013-06-29 07:49:00,77.7,72.9,29.33,ESE,112,0.0,0.0,85,0.00,,,0.00,WUHU21623XXSP,2013-06-29 11:49:00,
2013-06-29 07:54:00,77.9,73.0,29.33,ESE,112,0.0,0.0,85,0.00,,,0.00,WUHU21623XXSP,2013-06-29 11:54:00,
2013-06-29 07:59:00,78.6,73.8,29.33,ESE,112,0.0,0.0,85,0.00,,,0.00,WUHU21623XXSP,2013-06-29 11:59:00,
2013-06-29 08:04:00,79.2,74.3,29.33,SE,135,0.0,0.0,85,0.00,,,0.00,WUHU21623XXSP,2013-06-29 12:04:00,
2013-06-29 08:09:00,79.7,74.8,29.33,SE,135,0.0,0.0,85,0.00,,,0.00,WUHU21623XXSP,2013-06-29 12:09:00,
2013-06-29 08:14:00,79.9,75.0,29.33,SE,135,0.0,0.0,85,0.00,,,0.00,WUHU21623XXSP,2013-06-29 12:14:00,
2013-06-29 08:19:00,80.4,75.5,29.33,SE,135,0.0,0.0,85,0.00,,,0.00,WUHU21623XXSP,2013-06-29 12:19:00,
2013-06-29 08:24:00,80.4,75.5,29.33,SE,135,0.0,0.0,85,0.00,,,0.00,WUHU21623XXSP,2013-06-29 12:24:00,
2013-06-29 08:29:00,80.4,75.5,29.34,SE,135,0.0,0.0,85,0.00,,,0.00,WUHU21623XXSP,2013-06-29 12:29:00,
2013-06-29 08:34:00,81.0,75.7,29.34,SE,135,0.0,0.0,84,0.00,,,0.00,WUHU21623XXSP,2013-06-29 12:34:00,
2013-06-29 08:39:00,81.3,76.0,29.34,SE,135,0.0,0.0,84,0.00,,,0.00,WUHU21623XXSP,2013-06-29 12:39:00,
2013-06-29 08:44:00,81.7,76.4,29.34,SE,135,0.0,0.0,84,0.00,,,0.00,WUHU21623XXSP,2013-06-29 12:44:00,
2013-06-29 08:49:00,82.4,77.1,29.34,SSE,157,0.0,0.0,84,0.00,,,0.00,WUHU21623XXSP,2013-06-29 12:49:00,
2013-06-29 08:54:00,82.9,77.6,29.34,SSE,157,0.0,0.0,84,0.00,,,0.00,WUHU21623XXSP,2013-06-29 12:54:00,
2013-06-29 08:59:00,83.5,78.1,29.34,SSE,157,0.0,0.0,84,0.00,,,0.00,WUHU21623XXSP,2013-06-29 12:59:00,
2013-06-29 09:04:00,84.4,78.6,29.34,SSE,157,0.0,0.0,83,0.00,,,0.00,WUHU21623XXSP,2013-06-29 13:04:00,
2013-06-29 09:09:00,84.7,79.0,29.34,South,180,0.0,0.0,83,0.00,,,0.00,WUHU21623XXSP,2013-06-29 13:09:00,
2013-06-29 09:14:00,85.6,79.5,29.34,SW,225,0.0,0.0,82,0.00,,,0.00,WUHU21623XXSP,2013-06-29 13:14:00,
2013-06-29 09:19:00,86.2,79.7,29.34,South,180,0.0,0.0,81,0.00,,,0.00,WUHU21623XXSP,2013-06-29 13:19:00,
2013-06-29 09:24:00,86.4,79.5,29.34,South,180,0.0,0.0,80,0.00,,,0.00,WUHU21623XXSP,2013-06-29 13:24:00,
2013-06-29 09:29:00,86.7,79.9,29.34,SE,135,0.0,0.0,80,0.00,,,0.00,WUHU21623XXSP,2013-06-29 13:29:00,
2013-06-29 09:34:00,87.4,80.2,29.34,SSW,202,0.0,0.0,79,0.00,,,0.00,WUHU21623XXSP,2013-06-29 13:34:00,
2013-06-29 09:39:00,87.6,80.0,29.34,SSE,157,0.0,0.0,78,0.00,,,0.00,WUHU21623XXSP,2013-06-29 13:39:00,
2013-06-29 09:44:00,88.2,80.0,29.34,SSE,157,0.0,0.0,77,0.00,,,0.00,WUHU21623XXSP,2013-06-29 13:44:00,
2013-06-29 09:49:00,88.7,80.2,29.33,SSE,157,0.0,0.0,76,0.00,,,0.00,WUHU21623XXSP,2013-06-29 13:49:00,
2013-06-29 09:54:00,88.2,79.6,29.33,SSE,157,0.0,0.0,74,0.00,,,0.00,WUHU21623XXSP,2013-06-29 13:54:00,
2013-06-29 09:59:00,88.3,79.0,29.33,South,180,0.0,0.0,74,0.00,,,0.00,WUHU21623XXSP,2013-06-29 13:59:00,
2013-06-29 10:04:00,89.2,79.8,29.33,SSW,202,0.0,0.0,74,0.00,,,0.00,WUHU21623XXSP,2013-06-29 14:04:00,
2013-06-29 10:09:00,89.8,80.0,29.32,South,180,0.0,0.0,73,0.00,,,0.00,WUHU21623XXSP,2013-06-29 14:09:00,
2013-06-29 10:14:00,90.3,80.1,29.32,SSE,157,0.0,0.0,72,0.00,,,0.00,WUHU21623XXSP,2013-06-29 14:14:00,
2013-06-29 10:19:00,90.9,79.3,29.32,SSE,157,0.0,0.0,69,0.00,,,0.00,WUHU21623XXSP,2013-06-29 14:19:00,
2013-06-29 10:24:00,91.0,79.0,29.32,SE,135,0.0,0.0,68,0.00,,,0.00,WUHU21623XXSP,2013-06-29 14:24:00,
2013-06-29 10:29:00,91.0,79.0,29.32,SSW,202,0.0,0.0,68,0.00,,,0.00,WUHU21623XXSP,2013-06-29 14:29:00,
2013-06-29 10:34:00,90.9,78.8,29.32,South,180,0.0,0.0,68,0.00,,,0.00,WUHU21623XXSP,2013-06-29 14:34:00,
2013-06-29 10:39:00,90.3,78.2,29.32,SSE,157,0.0,0.0,67,0.00,,,0.00,WUHU21623XXSP,2013-06-29 14:39:00,
2013-06-29 10:44:00,90.7,78.7,29.32,South,180,0.0,0.0,68,0.00,,,0.00,WUHU21623XXSP,2013-06-29 14:44:00,
2013-06-29 10:49:00,91.0,78.5,29.32,South,180,0.0,0.0,67,0.00,,,0.00,WUHU21623XXSP,2013-06-29 14:49:00,
2013-06-29 10:54:00,91.2,78.2,29.32,South,180,0.0,0.0,66,0.00,,,0.00,WUHU21623XXSP,2013-06-29 14:54:00,
2013-06-29 10:59:00,91.8,78.7,29.32,SSE,157,0.0,0.0,66,0.00,,,0.00,WUHU21623XXSP,2013-06-29 14:59:00,
2013-06-29 11:04:00,92.5,78.5,29.32,South,180,0.0,0.0,64,0.00,,,0.00,WUHU21623XXSP,2013-06-29 15:04:00,
2013-06-29 11:09:00,92.5,78.5,29.33,WSW,247,0.0,0.0,64,0.00,,,0.00,WUHU21623XXSP,2013-06-29 15:09:00,
2013-06-29 11:14:00,92.8,78.9,29.32,WSW,247,0.0,0.0,64,0.00,,,0.00,WUHU21623XXSP,2013-06-29 15:14:00,
2013-06-29 11:19:00,93.6,79.1,29.33,South,180,0.0,0.0,63,0.00,,,0.00,WUHU21623XXSP,2013-06-29 15:19:00,
2013-06-29 11:24:00,93.4,78.9,29.33,SW,225,0.0,0.0,63,0.00,,,0.00,WUHU21623XXSP,2013-06-29 15:24:00,
2013-06-29 11:29:00,93.0,78.1,29.33,SW,225,0.0,0.0,62,0.00,,,0.00,WUHU21623XXSP,2013-06-29 15:29:00,
2013-06-29 11:34:00,91.6,76.7,29.33,South,180,0.0,0.0,62,0.00,,,0.00,WUHU21623XXSP,2013-06-29 15:34:00,
2013-06-29 11:39:00,91.0,76.8,29.33,SSE,157,0.0,0.0,63,0.00,,,0.00,WUHU21623XXSP,2013-06-29 15:39:00,
2013-06-29 11:44:00,91.9,77.5,29.33,SSE,157,0.0,0.0,63,0.00,,,0.00,WUHU21623XXSP,2013-06-29 15:44:00,
2013-06-29 11:49:00,93.0,78.1,29.33,SSE,157,0.0,0.0,62,0.00,,,0.00,WUHU21623XXSP,2013-06-29 15:49:00,
2013-06-29 11:54:00,93.9,78.5,29.33,WSW,247,0.0,0.0,61,0.00,,,0.00,WUHU21623XXSP,2013-06-29 15:54:00,
2013-06-29 11:59:00,93.9,78.2,29.33,South,180,0.0,0.0,59,0.00,,,0.00,WUHU21623XXSP,2013-06-29 15:59:00,
2013-06-29 12:05:00,93.0,76.6,29.33,South,180,0.0,0.0,59,0.00,,,0.00,WUHU21623XXSP,2013-06-29 16:05:00,
2013-06-29 12:10:00,92.8,76.4,29.32,WSW,247,0.0,0.0,59,0.00,,,0.00,WUHU21623XXSP,2013-06-29 16:10:00,
2013-06-29 12:15:00,93.0,77.2,29.32,South,180,0.0,0.0,60,0.00,,,0.00,WUHU21623XXSP,2013-06-29 16:15:00,
2013-06-29 12:20:00,94.1,78.2,29.32,SE,135,0.0,0.0,60,0.00,,,0.00,WUHU21623XXSP,2013-06-29 16:20:00,
2013-06-29 12:25:00,94.8,78.3,29.32,SE,135,0.0,0.0,59,0.00,,,0.00,WUHU21623XXSP,2013-06-29 16:25:00,
2013-06-29 12:30:00,95.4,78.8,29.31,SE,135,0.0,0.0,59,0.00,,,0.00,WUHU21623XXSP,2013-06-29 16:30:00,
2013-06-29 12:35:00,95.7,78.5,29.31,SE,135,0.0,0.0,58,0.00,,,0.00,WUHU21623XXSP,2013-06-29 16:35:00,
2013-06-29 12:40:00,96.4,78.3,29.31,SSE,157,0.0,0.0,57,0.00,,,0.00,WUHU21623XXSP,2013-06-29 16:40:00,
2013-06-29 12:45:00,96.6,78.8,29.31,SSE,157,0.0,0.0,57,0.00,,,0.00,WUHU21623XXSP,2013-06-29 16:45:00,
2013-06-29 12:50:00,97.0,78.6,29.31,SE,135,0.0,0.0,56,0.00,,,0.00,WUHU21623XXSP,2013-06-29 16:50:00,
2013-06-29 12:55:00,95.9,77.1,29.32,ESE,112,0.0,0.0,55,0.00,,,0.00,WUHU21623XXSP,2013-06-29 16:55:00,
2013-06-29 13:00:00,94.6,77.0,29.31,SSE,157,0.0,0.0,57,0.00,,,0.00,WUHU21623XXSP,2013-06-29 17:00:00,
2013-06-29 13:05:00,94.8,77.7,29.31,South,180,0.0,0.0,58,0.00,,,0.00,WUHU21623XXSP,2013-06-29 17:05:00,
2013-06-29 13:10:00,95.5,78.9,29.31,South,180,0.0,0.0,59,0.00,,,0.00,WUHU21623XXSP,2013-06-29 17:10:00,
2013-06-29 13:15:00,95.5,78.5,29.31,South,180,0.0,0.0,57,0.00,,,0.00,WUHU21623XXSP,2013-06-29 17:15:00,
2013-06-29 13:20:00,94.8,77.2,29.31,South,180,0.0,0.0,57,0.00,,,0.00,WUHU21623XXSP,2013-06-29 17:20:00,
2013-06-29 13:25:00,94.8,77.2,29.31,SSW,202,0.0,0.0,57,0.00,,,0.00,WUHU21623XXSP,2013-06-29 17:25:00,
2013-06-29 13:30:00,94.6,77.6,29.31,South,180,0.0,0.0,58,0.00,,,0.00,WUHU21623XXSP,2013-06-29 17:30:00,
2013-06-29 13:35:00,94.5,77.4,29.31,SSE,157,0.0,0.0,58,0.00,,,0.00,WUHU21623XXSP,2013-06-29 17:35:00,
2013-06-29 13:40:00,93.9,76.4,29.30,South,180,0.0,0.0,57,0.00,,,0.00,WUHU21623XXSP,2013-06-29 17:40:00,
2013-06-29 13:45:00,94.5,77.4,29.30,SE,135,0.0,0.0,58,0.00,,,0.00,WUHU21623XXSP,2013-06-29 17:45:00,
2013-06-29 13:50:00,95.2,78.1,29.30,SSE,157,0.0,0.0,58,0.00,,,0.00,WUHU21623XXSP,2013-06-29 17:50:00,
2013-06-29 13:55:00,95.9,78.7,29.30,SSE,157,0.0,0.0,58,0.00,,,0.00,WUHU21623XXSP,2013-06-29 17:55:00,
2013-06-29 14:00:00,96.6,78.3,29.29,SE,135,0.0,0.0,56,0.00,,,0.00,WUHU21623XXSP,2013-06-29 18:00:00,
2013-06-29 14:05:00,97.2,78.8,29.30,SE,135,0.0,0.0,56,0.00,,,0.00,WUHU21623XXSP,2013-06-29 18:05:00,
2013-06-29 14:10:00,97.9,79.5,29.30,SE,135,0.0,0.0,56,0.00,,,0.00,WUHU21623XXSP,2013-06-29 18:10:00,
2013-06-29 14:15:00,98.2,78.7,29.30,SSE,157,0.0,0.0,54,0.00,,,0.00,WUHU21623XXSP,2013-06-29 18:15:00,
2013-06-29 14:20:00,98.4,78.9,29.30,SSE,157,0.0,0.0,54,0.00,,,0.00,WUHU21623XXSP,2013-06-29 18:20:00,
2013-06-29 14:25:00,98.2,78.2,29.30,SE,135,0.0,0.0,53,0.00,,,0.00,WUHU21623XXSP,2013-06-29 18:25:00,
2013-06-29 14:30:00,96.3,77.0,29.29,ESE,112,0.0,0.0,53,0.00,,,0.00,WUHU21623XXSP,2013-06-29 18:30:00,
2013-06-29 14:35:00,95.7,76.4,29.29,SSE,157,0.0,0.0,54,0.00,,,0.00,WUHU21623XXSP,2013-06-29 18:35:00,
2013-06-29 14:40:00,96.4,77.0,29.29,SSE,157,0.0,0.0,54,0.00,,,0.00,WUHU21623XXSP,2013-06-29 18:40:00,
2013-06-29 14:45:00,96.6,76.7,29.29,SSE,157,0.0,0.0,53,0.00,,,0.00,WUHU21623XXSP,2013-06-29 18:45:00,
2013-06-29 14:50:00,96.1,76.2,29.29,SSE,157,0.0,0.0,53,0.00,,,0.00,WUHU21623XXSP,2013-06-29 18:50:00,
2013-06-29 14:55:00,94.8,75.6,29.28,SSE,157,0.0,0.0,54,0.00,,,0.00,WUHU21623XXSP,2013-06-29 18:55:00,
2013-06-29 15:00:00,94.5,75.8,29.28,SSE,157,0.0,0.0,55,0.00,,,0.00,WUHU21623XXSP,2013-06-29 19:00:00,
2013-06-29 15:05:00,93.4,74.7,29.28,SSE,157,0.0,0.0,55,0.00,,,0.00,WUHU21623XXSP,2013-06-29 19:05:00,
2013-06-29 15:10:00,92.5,74.4,29.28,SSE,157,0.0,0.0,56,0.00,,,0.00,WUHU21623XXSP,2013-06-29 19:10:00,
2013-06-29 15:15:00,93.0,76.1,29.28,SSE,157,0.0,0.0,58,0.00,,,0.00,WUHU21623XXSP,2013-06-29 19:15:00,
2013-06-29 15:20:00,93.2,75.7,29.28,SE,135,0.0,0.0,57,0.00,,,0.00,WUHU21623XXSP,2013-06-29 19:20:00,
2013-06-29 15:25:00,93.7,75.6,29.28,SSE,157,0.0,0.0,56,0.00,,,0.00,WUHU21623XXSP,2013-06-29 19:25:00,
2013-06-29 15:30:00,95.2,77.0,29.28,SE,135,0.0,0.0,56,0.00,,,0.00,WUHU21623XXSP,2013-06-29 19:30:00,
2013-06-29 15:35:00,95.7,76.9,29.28,South,180,0.0,0.0,55,0.00,,,0.00,WUHU21623XXSP,2013-06-29 19:35:00,
2013-06-29 15:40:00,96.1,76.7,29.27,SSE,157,0.0,0.0,54,0.00,,,0.00,WUHU21623XXSP,2013-06-29 19:40:00,
2013-06-29 15:45:00,97.0,77.0,29.27,South,180,0.0,0.0,53,0.00,,,0.00,WUHU21623XXSP,2013-06-29 19:45:00,
2013-06-29 15:50:00,97.0,77.0,29.27,SSW,202,0.0,0.0,53,0.00,,,0.00,WUHU21623XXSP,2013-06-29 19:50:00,
2013-06-29 15:55:00,96.4,76.5,29.28,SSW,202,0.0,0.0,53,0.00,,,0.00,WUHU21623XXSP,2013-06-29 19:55:00,
2013-06-29 16:00:00,94.3,75.0,29.28,SW,225,0.0,0.0,54,0.00,,,0.00,WUHU21623XXSP,2013-06-29 20:00:00,
2013-06-29 16:05:00,92.8,74.8,29.29,SSW,202,0.0,0.0,56,0.00,,,0.00,WUHU21623XXSP,2013-06-29 20:05:00,
2013-06-29 16:10:00,91.8,74.3,29.29,South,180,0.0,0.0,57,0.00,,,0.00,WUHU21623XXSP,2013-06-29 20:10:00,
2013-06-29 16:15:00,90.5,74.2,29.30,West,270,0.0,0.0,59,0.00,,,0.00,WUHU21623XXSP,2013-06-29 20:15:00,
2013-06-29 16:20:00,89.6,74.4,29.30,West,270,0.0,0.0,61,0.00,,,0.00,WUHU21623XXSP,2013-06-29 20:20:00,
2013-06-29 16:25:00,88.0,73.8,29.30,West,270,0.0,0.0,63,0.02,,,0.02,WUHU21623XXSP,2013-06-29 20:25:00,
2013-06-29 16:30:00,86.7,72.6,29.30,NW,315,0.0,0.0,63,0.02,,,0.02,WUHU21623XXSP,2013-06-29 20:30:00,
2013-06-29 16:35:00,85.8,72.7,29.30,NNW,337,0.0,0.0,65,0.02,,,0.02,WUHU21623XXSP,2013-06-29 20:35:00,
2013-06-29 16:40:00,85.3,72.6,29.29,North,0,0.0,0.0,66,0.02,,,0.02,WUHU21623XXSP,2013-06-29 20:40:00,
2013-06-29 16:45:00,85.1,72.9,29.29,North,0,0.0,0.0,67,0.02,,,0.02,WUHU21623XXSP,2013-06-29 20:45:00,
2013-06-29 16:50:00,85.1,73.4,29.29,WSW,247,0.0,0.0,68,0.02,,,0.02,WUHU21623XXSP,2013-06-29 20:50:00,
2013-06-29 16:55:00,84.7,73.5,29.29,West,270,0.0,0.0,69,0.02,,,0.02,WUHU21623XXSP,2013-06-29 20:55:00,
2013-06-29 17:00:00,84.4,73.1,29.30,NW,315,0.0,0.0,69,0.02,,,0.02,WUHU21623XXSP,2013-06-29 21:00:00,
2013-06-29 17:05:00,84.0,72.8,29.30,WNW,292,0.0,0.0,69,0.02,,,0.02,WUHU21623XXSP,2013-06-29 21:05:00,
2013-06-29 17:10:00,83.8,73.0,29.30,West,270,0.0,0.0,70,0.02,,,0.02,WUHU21623XXSP,2013-06-29 21:10:00,
2013-06-29 17:15:00,83.8,73.0,29.30,West,270,0.0,0.0,70,0.02,,,0.02,WUHU21623XXSP,2013-06-29 21:15:00,
2013-06-29 17:20:00,83.8,73.0,29.30,NNW,337,0.0,0.0,70,0.02,,,0.02,WUHU21623XXSP,2013-06-29 21:20:00,
2013-06-29 17:25:00,83.8,73.4,29.30,West,270,0.0,0.0,71,0.00,,,0.02,WUHU21623XXSP,2013-06-29 21:25:00,
2013-06-29 17:30:00,83.8,73.4,29.30,West,270,0.0,0.0,71,0.00,,,0.02,WUHU21623XXSP,2013-06-29 21:30:00,
2013-06-29 17:35:00,83.8,73.4,29.30,West,270,0.0,0.0,71,0.00,,,0.02,WUHU21623XXSP,2013-06-29 21:35:00,
2013-06-29 17:40:00,83.5,73.1,29.31,West,270,0.0,0.0,71,0.00,,,0.02,WUHU21623XXSP,2013-06-29 21:40:00,
2013-06-29 17:45:00,83.5,73.1,29.31,SW,225,0.0,0.0,71,0.00,,,0.02,WUHU21623XXSP,2013-06-29 21:45:00,
2013-06-29 17:50:00,83.3,73.3,29.31,SW,225,0.0,0.0,72,0.00,,,0.02,WUHU21623XXSP,2013-06-29 21:50:00,
2013-06-29 17:55:00,83.1,73.3,29.31,SW,225,0.0,0.0,72,0.02,,,0.02,WUHU21623XXSP,2013-06-29 21:55:00,
2013-06-29 18:00:00,83.1,73.1,29.31,SW,225,0.0,0.0,72,0.02,,,0.04,WUHU21623XXSP,2013-06-29 22:00:00,
2013-06-29 18:05:00,82.8,73.2,29.30,SW,225,0.0,0.0,73,0.02,,,0.04,WUHU21623XXSP,2013-06-29 22:05:00,
2013-06-29 18:10:00,82.6,73.0,29.31,SW,225,0.0,0.0,73,0.02,,,0.04,WUHU21623XXSP,2013-06-29 22:10:00,
2013-06-29 18:15:00,82.8,73.6,29.30,SW,225,0.0,0.0,74,0.02,,,0.04,WUHU21623XXSP,2013-06-29 22:15:00,
2013-06-29 18:20:00,82.8,73.6,29.30,SW,225,0.0,0.0,74,0.02,,,0.04,WUHU21623XXSP,2013-06-29 22:20:00,
2013-06-29 18:25:00,82.9,73.8,29.30,SW,225,0.0,0.0,74,0.02,,,0.04,WUHU21623XXSP,2013-06-29 22:25:00,
2013-06-29 18:30:00,82.9,73.8,29.30,SW,225,0.0,0.0,74,0.02,,,0.04,WUHU21623XXSP,2013-06-29 22:30:00,
2013-06-29 18:35:00,82.9,74.2,29.31,SW,225,0.0,0.0,75,0.02,,,0.04,WUHU21623XXSP,2013-06-29 22:35:00,
2013-06-29 18:40:00,82.8,74.0,29.30,SW,225,0.0,0.0,75,0.02,,,0.04,WUHU21623XXSP,2013-06-29 22:40:00,
2013-06-29 18:45:00,82.9,74.2,29.30,SW,225,0.0,0.0,75,0.02,,,0.04,WUHU21623XXSP,2013-06-29 22:45:00,
2013-06-29 18:50:00,82.9,74.2,29.30,SW,225,0.0,0.0,75,0.02,,,0.04,WUHU21623XXSP,2013-06-29 22:50:00,
2013-06-29 18:55:00,83.1,74.4,29.30,SW,225,0.0,0.0,75,0.00,,,0.04,WUHU21623XXSP,2013-06-29 22:55:00,
2013-06-29 19:00:00,83.1,74.8,29.30,SW,225,0.0,0.0,76,0.00,,,0.04,WUHU21623XXSP,2013-06-29 23:00:00,
2013-06-29 19:05:00,83.1,74.4,29.30,SW,225,0.0,0.0,75,0.00,,,0.04,WUHU21623XXSP,2013-06-29 23:05:00,
2013-06-29 19:10:00,83.1,74.4,29.30,SW,225,0.0,0.0,75,0.00,,,0.04,WUHU21623XXSP,2013-06-29 23:10:00,
2013-06-29 19:15:00,83.1,74.4,29.30,SW,225,0.0,0.0,75,0.00,,,0.04,WUHU21623XXSP,2013-06-29 23:15:00,
2013-06-29 19:20:00,83.1,74.4,29.30,SW,225,0.0,0.0,75,0.00,,,0.04,WUHU21623XXSP,2013-06-29 23:20:00,
2013-06-29 19:25:00,83.1,74.8,29.31,SW,225,0.0,0.0,76,0.00,,,0.04,WUHU21623XXSP,2013-06-29 23:25:00,
2013-06-29 19:30:00,83.1,74.4,29.31,South,180,0.0,0.0,75,0.00,,,0.04,WUHU21623XXSP,2013-06-29 23:30:00,
2013-06-29 19:35:00,82.9,74.2,29.31,South,180,0.0,0.0,75,0.00,,,0.04,WUHU21623XXSP,2013-06-29 23:35:00,
2013-06-29 19:40:00,82.9,74.2,29.32,South,180,0.0,0.0,75,0.00,,,0.04,WUHU21623XXSP,2013-06-29 23:40:00,
2013-06-29 19:45:00,82.6,74.0,29.32,South,180,0.0,0.0,75,0.00,,,0.04,WUHU21623XXSP,2013-06-29 23:45:00,
2013-06-29 19:50:00,82.4,73.7,29.32,South,180,0.0,0.0,75,0.00,,,0.04,WUHU21623XXSP,2013-06-29 23:50:00,
2013-06-29 19:55:00,82.2,73.5,29.32,SSE,157,0.0,0.0,75,0.00,,,0.04,WUHU21623XXSP,2013-06-29 23:55:00,
2013-06-29 20:00:00,82.0,72.9,29.32,SSE,157,0.0,0.0,74,0.00,,,0.04,WUHU21623XXSP,2013-06-30 00:00:00,
2013-06-29 20:05:00,81.7,72.6,29.32,SSE,157,0.0,0.0,74,0.00,,,0.04,WUHU21623XXSP,2013-06-30 00:05:00,
2013-06-29 20:10:00,81.5,72.4,29.32,SSE,157,0.0,0.0,74,0.00,,,0.04,WUHU21623XXSP,2013-06-30 00:10:00,
2013-06-29 20:15:00,81.3,72.2,29.32,SSE,157,0.0,0.0,74,0.00,,,0.04,WUHU21623XXSP,2013-06-30 00:15:00,
2013-06-29 20:20:00,81.3,72.6,29.32,SSE,157,0.0,0.0,75,0.00,,,0.04,WUHU21623XXSP,2013-06-30 00:20:00,
2013-06-29 20:25:00,81.1,72.5,29.32,SSE,157,0.0,0.0,75,0.00,,,0.04,WUHU21623XXSP,2013-06-30 00:25:00,
2013-06-29 20:30:00,81.1,72.5,29.32,SSE,157,0.0,0.0,75,0.00,,,0.04,WUHU21623XXSP,2013-06-30 00:30:00,
2013-06-29 20:35:00,81.1,72.5,29.32,SSE,157,0.0,0.0,75,0.00,,,0.04,WUHU21623XXSP,2013-06-30 00:35:00,
2013-06-29 20:40:00,81.0,72.3,29.32,SSE,157,0.0,0.0,75,0.00,,,0.04,WUHU21623XXSP,2013-06-30 00:40:00,
2013-06-29 20:45:00,80.8,72.1,29.32,SSE,157,0.0,0.0,75,0.00,,,0.04,WUHU21623XXSP,2013-06-30 00:45:00,
2013-06-29 20:50:00,80.8,72.5,29.32,SSE,157,0.0,0.0,76,0.00,,,0.04,WUHU21623XXSP,2013-06-30 00:50:00,
2013-06-29 20:55:00,80.6,72.4,29.33,SSE,157,0.0,0.0,76,0.00,,,0.04,WUHU21623XXSP,2013-06-30 00:55:00,
2013-06-29 21:00:00,80.4,72.2,29.33,SSE,157,0.0,0.0,76,0.00,,,0.04,WUHU21623XXSP,2013-06-30 01:00:00,
2013-06-29 21:05:00,80.4,72.2,29.33,SSE,157,0.0,0.0,76,0.00,,,0.04,WUHU21623XXSP,2013-06-30 01:05:00,
2013-06-29 21:10:00,80.4,72.2,29.33,SSE,157,0.0,0.0,76,0.00,,,0.04,WUHU21623XXSP,2013-06-30 01:10:00,
2013-06-29 21:15:00,80.4,72.2,29.33,SSE,157,0.0,0.0,76,0.00,,,0.04,WUHU21623XXSP,2013-06-30 01:15:00,
2013-06-29 21:20:00,80.4,72.2,29.34,SSE,157,0.0,0.0,76,0.00,,,0.04,WUHU21623XXSP,2013-06-30 01:20:00,
2013-06-29 21:25:00,80.4,72.6,29.34,SSE,157,0.0,0.0,77,0.00,,,0.04,WUHU21623XXSP,2013-06-30 01:25:00,
2013-06-29 21:30:00,80.4,72.6,29.34,SSE,157,0.0,0.0,77,0.00,,,0.04,WUHU21623XXSP,2013-06-30 01:30:00,
2013-06-29 21:35:00,80.4,72.6,29.34,SSE,157,0.0,0.0,77,0.00,,,0.04,WUHU21623XXSP,2013-06-30 01:35:00,
2013-06-29 21:40:00,80.4,72.6,29.34,SSE,157,0.0,0.0,77,0.00,,,0.04,WUHU21623XXSP,2013-06-30 01:40:00,
2013-06-29 21:45:00,80.4,72.6,29.34,SSE,157,0.0,0.0,77,0.00,,,0.04,WUHU21623XXSP,2013-06-30 01:45:00,
2013-06-29 21:50:00,80.4,72.6,29.34,SSE,157,0.0,0.0,77,0.00,,,0.04,WUHU21623XXSP,2013-06-30 01:50:00,
2013-06-29 21:56:00,80.4,72.6,29.34,SSE,157,0.0,0.0,77,0.00,,,0.04,WUHU21623XXSP,2013-06-30 01:56:00,
2013-06-29 22:01:00,80.4,72.6,29.35,SSE,157,0.0,0.0,77,0.00,,,0.04,WUHU21623XXSP,2013-06-30 02:01:00,
2013-06-29 22:06:00,80.4,72.6,29.35,SSE,157,0.0,0.0,77,0.00,,,0.04,WUHU21623XXSP,2013-06-30 02:06:00,
2013-06-29 22:11:00,80.4,72.6,29.35,SSE,157,0.0,0.0,77,0.00,,,0.04,WUHU21623XXSP,2013-06-30 02:11:00,
2013-06-29 22:16:00,80.2,72.4,29.35,SSE,157,0.0,0.0,77,0.00,,,0.04,WUHU21623XXSP,2013-06-30 02:16:00,
2013-06-29 22:21:00,80.2,72.4,29.34,SSE,157,0.0,0.0,77,0.00,,,0.04,WUHU21623XXSP,2013-06-30 02:21:00,
2013-06-29 22:26:00,80.2,72.4,29.34,SSE,157,0.0,0.0,77,0.00,,,0.04,WUHU21623XXSP,2013-06-30 02:26:00,
2013-06-29 22:31:00,80.2,72.4,29.34,SSE,157,0.0,0.0,77,0.00,,,0.04,WUHU21623XXSP,2013-06-30 02:31:00,
2013-06-29 22:36:00,80.2,72.4,29.34,SSE,157,0.0,0.0,77,0.00,,,0.04,WUHU21623XXSP,2013-06-30 02:36:00,
2013-06-29 22:41:00,80.2,72.8,29.34,South,180,0.0,0.0,78,0.00,,,0.04,WUHU21623XXSP,2013-06-30 02:41:00,
2013-06-29 22:46:00,80.2,72.8,29.34,SSE,157,0.0,0.0,78,0.00,,,0.04,WUHU21623XXSP,2013-06-30 02:46:00,
2013-06-29 22:51:00,80.2,72.8,29.35,SSE,157,0.0,0.0,78,0.00,,,0.04,WUHU21623XXSP,2013-06-30 02:51:00,
2013-06-29 22:56:00,80.2,72.8,29.34,SSE,157,0.0,0.0,78,0.00,,,0.04,WUHU21623XXSP,2013-06-30 02:56:00,
2013-06-29 23:01:00,80.2,72.8,29.34,South,180,0.0,0.0,78,0.00,,,0.04,WUHU21623XXSP,2013-06-30 03:01:00,
2013-06-29 23:06:00,80.2,72.8,29.34,South,180,0.0,0.0,78,0.00,,,0.04,WUHU21623XXSP,2013-06-30 03:06:00,
2013-06-29 23:11:00,80.2,72.8,29.34,South,180,0.0,0.0,78,0.00,,,0.04,WUHU21623XXSP,2013-06-30 03:11:00,
2013-06-29 23:16:00,80.1,72.6,29.34,South,180,0.0,0.0,78,0.00,,,0.04,WUHU21623XXSP,2013-06-30 03:16:00,
2013-06-29 23:21:00,80.2,72.8,29.34,WSW,247,0.0,0.0,78,0.00,,,0.04,WUHU21623XXSP,2013-06-30 03:21:00,
2013-06-29 23:26:00,80.2,72.8,29.34,WSW,247,0.0,0.0,78,0.00,,,0.04,WUHU21623XXSP,2013-06-30 03:26:00,
2013-06-29 23:31:00,80.2,72.8,29.34,WSW,247,0.0,0.0,78,0.00,,,0.04,WUHU21623XXSP,2013-06-30 03:31:00,
2013-06-29 23:36:00,80.1,73.0,29.34,SSE,157,0.0,0.0,79,0.00,,,0.04,WUHU21623XXSP,2013-06-30 03:36:00,
2013-06-29 23:41:00,79.9,72.8,29.34,SSE,157,0.0,0.0,79,0.00,,,0.04,WUHU21623XXSP,2013-06-30 03:41:00,
2013-06-29 23:46:00,79.9,72.8,29.34,South,180,0.0,0.0,79,0.00,,,0.04,WUHU21623XXSP,2013-06-30 03:46:00,
2013-06-29 23:51:00,79.9,72.8,29.34,SSE,157,0.0,0.0,79,0.00,,,0.04,WUHU21623XXSP,2013-06-30 03:51:00,
2013-06-29 23:56:00,79.9,72.8,29.33,SSE,157,0.0,0.0,79,0.00,,,0.04,WUHU21623XXSP,2013-06-30 03:56:00,